Time;durP1;ratioP1;P1;durP2;ratioP2;P2;SDS_P1;SDS_P2;PMS_P1;PMS_P2;Temp;Humidity;BMP_temperature;BMP_pressure;BME280_temperature;BME280_humidity;BME280_pressure;Samples;Min_cycle;Max_cycle;Signal;HPM_P1;HPM_P2
2021/05/23 00:02:12;;;;;;;3.72;1.05;;;;;;;10.43;86.98;100056.50;3531435;40;20062;-54
2021/05/23 00:04:39;;;;;;;2.63;1.48;;;;;;;10.39;87.38;100065.84;3531615;40;20066;-52
2021/05/23 00:07:08;;;;;;;2.60;1.60;;;;;;;10.24;87.85;100065.59;3531912;40;20051;-51
2021/05/23 00:09:36;;;;;;;3.40;1.58;;;;;;;10.28;87.27;100066.50;3531528;40;20051;-53
2021/05/23 00:12:05;;;;;;;1.80;1.20;;;;;;;10.21;87.76;100068.03;3531428;40;20412;-54
2021/05/23 00:14:33;;;;;;;2.00;1.20;;;;;;;10.25;87.34;100067.31;3531428;40;20599;-55
2021/05/23 00:17:00;;;;;;;2.35;1.25;;;;;;;10.19;87.54;100072.28;3531326;40;20065;-55
2021/05/23 00:19:27;;;;;;;1.90;1.27;;;;;;;10.12;88.47;100075.56;3531590;40;20079;-50
2021/05/23 00:21:54;;;;;;;2.45;1.38;;;;;;;10.12;88.78;100075.56;3531618;40;20054;-55
2021/05/23 00:24:24;;;;;;;1.50;1.30;;;;;;;10.07;88.57;100077.19;3531543;40;20103;-53
2021/05/23 00:26:53;;;;;;;3.05;1.35;;;;;;;10.06;88.81;100081.44;3531595;40;20050;-49
2021/05/23 00:29:20;;;;;;;1.55;1.27;;;;;;;10.09;88.47;100078.09;3531522;40;20094;-50
2021/05/23 00:31:48;;;;;;;1.63;1.02;;;;;;;9.90;89.83;100077.75;3531473;40;20062;-53
2021/05/23 00:34:15;;;;;;;4.68;1.35;;;;;;;9.95;90.03;100086.38;3531617;40;20435;-54
2021/05/23 00:36:42;;;;;;;3.33;1.40;;;;;;;9.89;90.05;100078.59;3527422;40;20145;-51
2021/05/23 00:39:09;;;;;;;4.28;1.45;;;;;;;9.87;90.78;100081.94;3531524;40;20070;-51
2021/05/23 00:41:36;;;;;;;4.97;1.58;;;;;;;9.90;90.72;100082.00;3531676;40;20099;-53
2021/05/23 00:44:03;;;;;;;3.20;1.10;;;;;;;9.88;91.10;100088.78;3531564;40;20066;-53
2021/05/23 00:46:30;;;;;;;3.65;1.80;;;;;;;9.81;91.52;100084.41;3531225;40;20066;-53
2021/05/23 00:48:57;;;;;;;5.38;1.50;;;;;;;9.78;91.60;100081.78;3531357;40;20074;-51
2021/05/23 00:51:25;;;;;;;2.65;1.70;;;;;;;9.74;92.56;100085.97;3531196;40;20392;-49
2021/05/23 00:53:52;;;;;;;4.93;1.80;;;;;;;9.59;92.75;100090.78;3531389;40;20095;-55
2021/05/23 00:56:20;;;;;;;1.38;1.27;;;;;;;9.75;92.83;100092.78;3531842;40;20088;-51
2021/05/23 00:58:47;;;;;;;3.30;1.58;;;;;;;9.69;92.54;100102.91;3532611;40;20055;-56
2021/05/23 01:01:54;;;;;;;1.95;1.23;;;;;;;9.58;93.59;100101.84;3532786;40;20102;-54
2021/05/23 01:04:22;;;;;;;3.90;1.27;;;;;;;9.74;93.34;100103.84;3531181;40;20332;-56
2021/05/23 01:06:50;;;;;;;3.42;1.60;;;;;;;9.68;93.78;100098.63;3532618;40;20114;-52
2021/05/23 01:09:17;;;;;;;2.17;1.50;;;;;;;9.56;93.87;100106.91;3532748;40;20441;-51
2021/05/23 01:11:44;;;;;;;1.75;1.30;;;;;;;9.64;93.45;100107.06;3532528;40;20051;-53
2021/05/23 01:14:11;;;;;;;1.90;1.75;;;;;;;9.67;93.04;100102.03;3523673;40;20077;-52
2021/05/23 01:16:43;;;;;;;3.88;2.25;;;;;;;9.57;94.11;100105.25;3532862;40;20070;-52
2021/05/23 01:19:16;;;;;;;5.28;2.20;;;;;;;9.42;93.95;100106.63;3532339;40;20079;-49
2021/05/23 01:21:49;;;;;;;3.53;2.03;;;;;;;9.61;94.01;100105.34;3528835;40;20063;-52
2021/05/23 01:24:40;;;;;;;6.00;2.05;;;;;;;9.61;94.07;100112.09;3532775;40;20055;-52
2021/05/23 01:27:09;;;;;;;4.72;2.20;;;;;;;9.48;94.37;100110.16;3532541;40;20049;-52
2021/05/23 01:29:37;;;;;;;8.35;2.42;;;;;;;9.51;94.27;100116.19;3532690;40;20360;-54
2021/05/23 01:32:06;;;;;;;3.75;1.98;;;;;;;9.37;94.60;100112.47;3532816;40;20412;-50
2021/05/23 01:34:34;;;;;;;3.40;2.13;;;;;;;9.47;95.35;100116.94;3532702;40;20054;-49
2021/05/23 01:37:06;;;;;;;2.70;2.30;;;;;;;9.50;95.26;100118.72;3532234;40;20090;-52
2021/05/23 01:39:33;;;;;;;3.72;2.20;;;;;;;9.36;95.76;100115.88;3532476;40;20098;-54
2021/05/23 01:42:01;;;;;;;3.83;2.30;;;;;;;9.43;95.51;100121.16;3532487;40;20082;-49
2021/05/23 01:44:28;;;;;;;3.47;2.08;;;;;;;9.42;95.84;100121.09;3532404;40;20066;-49
2021/05/23 01:46:55;;;;;;;5.00;2.40;;;;;;;9.30;96.32;100115.75;3532348;40;20603;-50
2021/05/23 01:49:22;;;;;;;4.72;2.85;;;;;;;9.34;97.46;100117.53;3532360;40;20480;-49
2021/05/23 01:51:49;;;;;;;2.78;2.55;;;;;;;9.39;96.99;100116.81;3532216;40;20068;-50
2021/05/23 01:54:16;;;;;;;3.35;2.63;;;;;;;9.19;98.02;100118.91;3532215;40;20397;-54
2021/05/23 01:56:43;;;;;;;4.25;2.30;;;;;;;9.25;97.89;100113.09;3532620;40;20051;-53
2021/05/23 01:59:10;;;;;;;5.93;3.00;;;;;;;9.11;98.10;100124.69;3532084;40;20062;-52
2021/05/23 02:01:37;;;;;;;4.65;2.45;;;;;;;9.19;98.13;100123.16;3532479;40;20083;-52
2021/05/23 02:04:05;;;;;;;3.22;2.70;;;;;;;9.14;98.33;100122.19;3532648;40;20053;-55
2021/05/23 02:06:32;;;;;;;4.82;2.78;;;;;;;9.26;98.32;100121.63;3531905;40;20070;-56
2021/05/23 02:08:59;;;;;;;3.22;2.45;;;;;;;9.13;98.84;100126.44;3532080;40;20062;-52
2021/05/23 02:11:26;;;;;;;4.47;2.50;;;;;;;9.01;99.73;100122.75;3532081;40;20065;-52
2021/05/23 02:13:54;;;;;;;4.35;2.72;;;;;;;9.17;98.98;100130.78;3532105;40;20336;-51
2021/05/23 02:16:21;;;;;;;4.57;2.85;;;;;;;9.10;99.07;100130.63;3532153;40;20361;-52
2021/05/23 02:18:49;;;;;;;3.28;2.97;;;;;;;9.08;99.45;100124.63;3532257;40;20050;-52
2021/05/23 02:21:16;;;;;;;4.32;2.75;;;;;;;9.04;100.00;100127.94;3532176;40;20094;-51
2021/05/23 02:23:51;;;;;;;5.90;3.72;;;;;;;9.03;100.00;100124.50;3528435;40;20054;-52
2021/05/23 02:26:19;;;;;;;5.70;3.50;;;;;;;9.09;99.27;100122.09;3532195;40;20352;-52
2021/05/23 02:28:47;;;;;;;5.53;3.80;;;;;;;9.02;98.97;100122.81;3532183;40;20099;-51
2021/05/23 02:31:14;;;;;;;7.25;3.40;;;;;;;9.08;99.21;100119.50;3532010;40;20091;-51
2021/05/23 02:33:41;;;;;;;3.88;3.03;;;;;;;9.05;98.93;100120.28;3528307;40;20085;-51
2021/05/23 02:36:08;;;;;;;5.88;3.45;;;;;;;8.90;99.65;100119.94;3532376;40;20061;-50
2021/05/23 02:38:35;;;;;;;6.40;3.58;;;;;;;8.98;99.30;100125.25;3532134;40;20099;-52
2021/05/23 02:41:03;;;;;;;5.53;3.25;;;;;;;8.97;99.21;100128.59;3532187;40;20055;-53
2021/05/23 02:43:31;;;;;;;4.97;3.15;;;;;;;8.91;99.02;100130.19;3531677;40;25045;-52
2021/05/23 02:46:01;;;;;;;7.28;3.10;;;;;;;8.91;99.43;100135.28;3531979;40;20077;-51
2021/05/23 02:48:28;;;;;;;4.10;3.70;;;;;;;8.84;100.00;100136.00;3532141;40;20051;-52
2021/05/23 02:50:55;;;;;;;5.30;3.42;;;;;;;8.81;100.00;100140.16;3532244;40;20087;-49
2021/05/23 02:53:23;;;;;;;4.32;3.00;;;;;;;8.83;100.00;100139.38;3532159;40;20087;-52
2021/05/23 02:55:50;;;;;;;4.10;2.88;;;;;;;8.80;99.90;100135.88;3523097;40;20066;-55
2021/05/23 02:58:18;;;;;;;4.10;3.13;;;;;;;8.82;100.00;100139.31;3531727;40;20408;-50
2021/05/23 03:00:46;;;;;;;7.13;3.20;;;;;;;8.89;99.57;100131.00;3532016;40;20092;-52
2021/05/23 03:03:14;;;;;;;3.92;2.92;;;;;;;8.87;99.50;100132.63;3532035;40;20328;-52
2021/05/23 03:05:42;;;;;;;5.10;3.20;;;;;;;8.84;99.91;100140.25;3527848;40;20067;-49
2021/05/23 03:08:10;;;;;;;2.92;2.67;;;;;;;8.83;99.89;100139.38;3532308;40;20063;-52
2021/05/23 03:10:51;;;;;;;5.10;3.28;;;;;;;8.67;100.00;100142.38;3531805;40;20062;-51
2021/05/23 03:13:19;;;;;;;4.50;2.70;;;;;;;8.66;100.00;100141.53;3531748;40;20090;-50
2021/05/23 03:15:47;;;;;;;5.90;3.00;;;;;;;8.84;99.95;100142.78;3532058;40;20103;-55
2021/05/23 03:18:14;;;;;;;3.78;2.72;;;;;;;8.54;99.93;100145.44;3531692;40;20845;-49
2021/05/23 03:20:43;;;;;;;4.18;2.78;;;;;;;8.82;100.00;100150.41;3527722;40;20137;-49
2021/05/23 03:23:11;;;;;;;3.00;2.70;;;;;;;8.61;100.00;100147.34;3532280;40;20050;-51
2021/05/23 03:25:38;;;;;;;4.75;2.63;;;;;;;8.61;100.00;100144.78;3531823;40;20100;-52
2021/05/23 03:28:06;;;;;;;2.60;2.40;;;;;;;8.72;100.00;100148.47;3531866;40;20051;-50
2021/05/23 03:30:41;;;;;;;5.30;2.38;;;;;;;8.68;100.00;100146.66;3531626;40;20060;-52
2021/05/23 03:33:10;;;;;;;3.23;2.40;;;;;;;8.67;100.00;100158.56;3532288;40;20789;-49
2021/05/23 03:35:38;;;;;;;3.67;2.50;;;;;;;8.62;100.00;100154.16;3531739;40;20143;-54
2021/05/23 03:38:06;;;;;;;4.15;2.65;;;;;;;8.51;100.00;100161.56;3531628;40;20110;-51
2021/05/23 03:40:36;;;;;;;3.45;2.55;;;;;;;8.64;100.00;100158.50;3531726;40;20066;-55
2021/05/23 03:43:05;;;;;;;4.55;2.38;;;;;;;8.59;100.00;100159.19;3531530;40;20113;-51
2021/05/23 03:45:36;;;;;;;5.53;3.00;;;;;;;8.68;100.00;100155.16;3531444;40;20050;-49
2021/05/23 03:48:04;;;;;;;3.45;2.22;;;;;;;8.81;99.91;100151.22;3531579;40;20475;-55
2021/05/23 03:50:31;;;;;;;4.20;2.45;;;;;;;8.85;99.62;100155.59;3531482;40;20067;-54
2021/05/23 03:52:58;;;;;;;4.63;2.70;;;;;;;8.83;99.60;100157.25;3531611;40;20088;-55
2021/05/23 03:55:26;;;;;;;3.25;2.58;;;;;;;8.65;100.00;100154.25;3531632;40;20872;-53
2021/05/23 03:57:54;;;;;;;2.80;1.95;;;;;;;8.88;99.82;100162.47;3531525;40;20051;-52
2021/05/23 04:00:23;;;;;;;6.30;2.78;;;;;;;8.86;100.00;100164.97;3531547;40;20142;-53
2021/05/23 04:02:53;;;;;;;2.22;2.03;;;;;;;8.83;100.00;100172.56;3531620;40;20067;-55
2021/05/23 04:05:25;;;;;;;3.58;2.65;;;;;;;8.89;99.84;100169.28;3531662;40;20061;-53
2021/05/23 04:07:53;;;;;;;3.35;2.65;;;;;;;8.82;100.00;100177.63;3531751;40;20099;-54
2021/05/23 04:10:24;;;;;;;3.80;2.70;;;;;;;8.92;99.15;100189.81;3531447;40;20413;-55
2021/05/23 04:12:57;;;;;;;;;;;;;;;8.97;99.41;100183.13;3532012;40;20302;-53
2021/05/23 04:15:25;;;;;;;3.88;2.38;;;;;;;8.90;99.59;100183.78;3531441;40;19954;-54
2021/05/23 04:17:52;;;;;;;4.35;2.70;;;;;;;9.05;98.42;100189.25;3531564;40;20050;-52
2021/05/23 04:20:21;;;;;;;4.53;2.00;;;;;;;9.09;98.46;100191.03;3531133;40;20081;-52
2021/05/23 04:22:49;;;;;;;4.25;2.00;;;;;;;9.05;99.34;100196.03;3531500;40;20113;-52
2021/05/23 04:25:18;;;;;;;4.05;2.45;;;;;;;9.23;98.11;100200.72;3531318;40;20091;-50
2021/05/23 04:27:48;;;;;;;2.90;2.22;;;;;;;9.21;98.44;100210.06;3527402;40;20074;-52
2021/05/23 04:30:17;;;;;;;2.50;2.10;;;;;;;9.19;97.64;100210.00;3531403;40;20487;-50
2021/05/23 04:32:45;;;;;;;2.80;1.58;;;;;;;9.42;96.32;100213.09;3528889;40;20097;-54
2021/05/23 04:35:14;;;;;;;2.80;2.10;;;;;;;9.46;95.93;100212.34;3532860;40;20095;-51
2021/05/23 04:37:43;;;;;;;2.03;1.80;;;;;;;9.43;96.15;100210.59;3533080;40;20094;-50
2021/05/23 04:40:12;;;;;;;4.35;1.90;;;;;;;9.39;95.95;100213.91;3532824;40;20387;-56
2021/05/23 04:42:40;;;;;;;2.60;1.90;;;;;;;9.59;95.13;100203.25;3532668;40;20059;-50
2021/05/23 04:45:27;;;;;;;2.25;1.60;;;;;;;9.65;94.61;100217.00;3532301;40;20135;-54
2021/05/23 04:47:55;;;;;;;2.70;1.70;;;;;;;9.69;94.83;100215.41;3532709;40;20665;-54
2021/05/23 04:50:22;;;;;;;2.20;2.00;;;;;;;9.83;94.13;100220.81;3532728;40;20347;-51
2021/05/23 04:52:49;;;;;;;3.42;1.70;;;;;;;9.93;93.34;100235.50;3532606;40;20065;-53
2021/05/23 04:55:16;;;;;;;2.47;1.70;;;;;;;10.27;92.20;100231.97;3532583;40;20067;-51
2021/05/23 04:57:43;;;;;;;2.42;1.70;;;;;;;10.54;90.68;100234.19;3532914;40;20058;-55
2021/05/23 05:00:12;;;;;;;1.65;1.48;;;;;;;10.52;89.83;100252.91;3533139;40;20070;-53
2021/05/23 05:02:41;;;;;;;2.35;1.27;;;;;;;10.65;89.44;100249.75;3532866;40;20343;-50
2021/05/23 05:05:13;;;;;;;2.00;1.60;;;;;;;10.66;87.69;100260.00;3533131;40;20124;-51
2021/05/23 05:07:41;;;;;;;2.35;1.73;;;;;;;10.60;89.26;100270.16;3532521;40;20050;-52
2021/05/23 05:10:09;;;;;;;2.70;1.63;;;;;;;10.67;88.29;100266.84;3532815;40;20051;-52
2021/05/23 05:12:37;;;;;;;2.47;1.65;;;;;;;10.79;89.15;100268.78;3532610;40;20073;-52
2021/05/23 05:15:06;;;;;;;2.42;1.63;;;;;;;10.71;88.29;100271.19;3532555;40;20098;-50
2021/05/23 05:17:33;;;;;;;1.70;1.60;;;;;;;10.85;87.62;100268.03;3532296;40;20394;-51
2021/05/23 05:20:02;;;;;;;1.40;1.30;;;;;;;10.94;86.06;100270.75;3532542;40;20073;-50
2021/05/23 05:22:29;;;;;;;4.05;1.60;;;;;;;10.82;86.33;100263.72;3532269;40;20066;-51
2021/05/23 05:24:56;;;;;;;1.20;1.10;;;;;;;11.06;84.89;100276.09;3532775;40;20487;-53
2021/05/23 05:27:27;;;;;;;2.63;1.50;;;;;;;11.00;84.49;100269.97;3532533;40;20074;-52
2021/05/23 05:29:55;;;;;;;2.08;1.40;;;;;;;11.14;84.92;100283.91;3532769;40;20055;-53
2021/05/23 05:32:23;;;;;;;2.88;1.60;;;;;;;11.13;84.77;100287.28;3532159;40;20090;-54
2021/05/23 05:34:51;;;;;;;1.63;1.40;;;;;;;11.11;85.13;100288.97;3532662;40;20066;-54
2021/05/23 05:37:19;;;;;;;2.50;1.50;;;;;;;11.25;84.15;100290.06;3532422;40;20062;-53
2021/05/23 05:39:46;;;;;;;3.95;1.60;;;;;;;11.31;83.95;100297.00;3532558;40;20636;-52
2021/05/23 05:42:13;;;;;;;3.10;1.38;;;;;;;11.44;83.17;100299.78;3531677;40;20055;-51
2021/05/23 05:44:40;;;;;;;2.88;1.17;;;;;;;11.71;82.38;100299.34;3532456;40;20070;-53
2021/05/23 05:47:08;;;;;;;1.50;1.30;;;;;;;11.52;82.98;100302.47;3530384;40;20059;-52
2021/05/23 05:49:37;;;;;;;1.90;1.25;;;;;;;11.46;82.17;100305.81;3532004;40;20069;-52
2021/05/23 05:52:06;;;;;;;1.90;1.08;;;;;;;11.51;81.64;100305.00;3532495;40;20088;-54
2021/05/23 05:54:33;;;;;;;1.67;1.05;;;;;;;11.40;81.92;100299.69;3531882;40;20066;-52
2021/05/23 05:57:01;;;;;;;0.95;0.90;;;;;;;11.36;82.39;100300.47;3532468;40;20083;-52
2021/05/23 05:59:45;;;;;;;1.00;0.95;;;;;;;11.34;81.82;100305.59;3520365;40;20086;-54
2021/05/23 06:02:12;;;;;;;1.38;0.77;;;;;;;11.38;82.11;100307.38;3532196;40;20047;-54
2021/05/23 06:04:39;;;;;;;1.98;1.10;;;;;;;11.25;82.43;100304.59;3533223;40;20150;-50
2021/05/23 06:07:06;;;;;;;1.35;0.80;;;;;;;11.22;82.85;100310.50;3530991;40;20365;-49
2021/05/23 06:09:33;;;;;;;2.42;0.95;;;;;;;11.28;82.42;100314.88;3532423;40;20063;-53
2021/05/23 06:12:00;;;;;;;4.72;1.02;;;;;;;11.20;82.63;100319.88;3532328;40;20089;-52
2021/05/23 06:14:27;;;;;;;1.65;0.90;;;;;;;11.10;83.57;100326.56;3532510;40;20079;-51
2021/05/23 06:16:54;;;;;;;1.05;0.70;;;;;;;11.25;83.29;100325.94;3532148;40;20077;-52
2021/05/23 06:19:22;;;;;;;1.60;1.02;;;;;;;11.34;84.01;100332.94;3532338;40;20070;-53
2021/05/23 06:21:49;;;;;;;2.15;1.00;;;;;;;11.21;83.10;100337.84;3532364;40;20069;-49
2021/05/23 06:24:17;;;;;;;1.35;0.70;;;;;;;11.30;82.91;100336.28;3532301;40;20081;-49
2021/05/23 06:26:44;;;;;;;1.35;0.80;;;;;;;11.34;82.73;100327.81;3528403;40;20352;-50
2021/05/23 06:29:11;;;;;;;1.85;0.93;;;;;;;11.20;82.83;100330.13;3532507;40;20109;-51
2021/05/23 06:31:38;;;;;;;1.20;0.90;;;;;;;11.54;82.08;100339.25;3532308;40;20090;-51
2021/05/23 06:34:05;;;;;;;1.60;0.77;;;;;;;11.39;81.40;100331.31;3532337;40;20086;-50
2021/05/23 06:36:32;;;;;;;1.17;0.70;;;;;;;11.43;81.94;100341.63;3532430;40;20079;-55
2021/05/23 06:38:59;;;;;;;1.40;0.68;;;;;;;11.66;81.44;100344.56;3532437;40;20070;-54
2021/05/23 06:41:26;;;;;;;0.85;0.80;;;;;;;11.58;81.03;100348.72;3532297;40;20117;-52
2021/05/23 06:43:53;;;;;;;1.50;0.88;;;;;;;11.42;81.68;100349.31;3532279;40;20074;-49
2021/05/23 06:46:20;;;;;;;1.80;0.70;;;;;;;11.22;85.31;100362.63;3531805;40;20118;-55
2021/05/23 06:48:47;;;;;;;2.15;0.90;;;;;;;10.93;86.08;100356.13;3532133;40;20070;-49
2021/05/23 06:51:14;;;;;;;2.60;1.08;;;;;;;10.69;90.12;100356.53;3532139;40;20054;-51
2021/05/23 06:53:41;;;;;;;3.10;1.10;;;;;;;10.35;93.44;100353.28;3530133;40;20075;-51
2021/05/23 06:56:09;;;;;;;2.35;0.90;;;;;;;10.28;95.31;100348.84;3531821;40;20061;-52
2021/05/23 06:58:36;;;;;;;1.77;1.05;;;;;;;10.44;95.04;100347.47;3531976;40;20055;-50
2021/05/23 07:01:09;;;;;;;2.20;1.27;;;;;;;10.64;96.24;100341.06;3532132;40;20784;-53
2021/05/23 07:03:37;;;;;;;3.28;1.30;;;;;;;10.80;96.95;100338.78;3532129;40;20065;-51
2021/05/23 07:06:04;;;;;;;2.42;1.38;;;;;;;11.32;95.48;100343.13;3531807;40;20066;-54
2021/05/23 07:08:32;;;;;;;2.80;1.10;;;;;;;11.72;92.82;100341.22;3531626;40;20118;-54
2021/05/23 07:10:59;;;;;;;2.55;1.40;;;;;;;11.94;90.68;100356.16;3532188;40;20050;-50
2021/05/23 07:13:26;;;;;;;1.88;1.00;;;;;;;11.76;90.45;100344.72;3532303;40;20067;-53
2021/05/23 07:15:54;;;;;;;3.80;1.42;;;;;;;12.19;89.29;100359.06;3532027;40;20102;-49
2021/05/23 07:18:21;;;;;;;3.47;1.02;;;;;;;12.41;85.39;100360.22;3532161;40;20441;-53
2021/05/23 07:20:49;;;;;;;3.38;0.93;;;;;;;12.46;86.51;100364.56;3531763;40;20067;-53
2021/05/23 07:23:16;;;;;;;2.50;0.70;;;;;;;12.13;88.13;100359.84;3531871;40;20173;-49
2021/05/23 07:25:43;;;;;;;3.33;1.20;;;;;;;12.52;85.87;100361.19;3528141;40;20066;-49
2021/05/23 07:28:11;;;;;;;2.45;1.27;;;;;;;12.68;86.84;100362.25;3532150;40;20070;-50
2021/05/23 07:30:39;;;;;;;4.35;1.10;;;;;;;12.88;87.74;100367.63;3531130;40;20050;-55
2021/05/23 07:33:06;;;;;;;3.35;0.90;;;;;;;12.97;82.68;100363.44;3531210;40;20113;-50
2021/05/23 07:35:34;;;;;;;1.95;0.93;;;;;;;12.99;84.60;100361.75;3531198;40;20339;-50
2021/05/23 07:38:01;;;;;;;2.60;1.30;;;;;;;12.89;83.20;100354.78;3531361;40;20063;-51
2021/05/23 07:40:28;;;;;;;1.80;1.02;;;;;;;12.76;83.55;100355.50;3531192;40;20067;-54
2021/05/23 07:42:56;;;;;;;4.60;0.88;;;;;;;12.96;80.16;100353.16;3531405;40;20332;-51
2021/05/23 07:45:23;;;;;;;2.50;0.98;;;;;;;13.10;79.13;100363.56;3531903;40;20079;-53
2021/05/23 07:47:50;;;;;;;2.22;1.27;;;;;;;13.03;81.26;100361.75;3531313;40;20058;-52
2021/05/23 07:50:17;;;;;;;1.20;1.08;;;;;;;13.11;84.33;100363.56;3531686;40;20083;-51
2021/05/23 07:52:44;;;;;;;2.38;1.27;;;;;;;13.15;77.13;100361.91;3531808;40;20395;-49
2021/05/23 07:55:12;;;;;;;2.40;0.90;;;;;;;13.33;75.87;100364.69;3532121;40;20485;-50
2021/05/23 07:57:39;;;;;;;2.55;0.98;;;;;;;13.42;76.17;100351.91;3532055;40;20066;-50
2021/05/23 08:00:07;;;;;;;9.90;2.78;;;;;;;13.50;79.10;100365.69;3531878;40;20110;-50
2021/05/23 08:02:34;;;;;;;1.58;1.10;;;;;;;13.49;73.94;100366.53;3531702;40;20094;-52
2021/05/23 08:05:03;;;;;;;3.28;0.80;;;;;;;13.60;75.23;100369.22;3532053;40;20502;-51
2021/05/23 08:07:30;;;;;;;1.25;0.98;;;;;;;13.71;73.23;100370.13;3533186;40;20066;-50
2021/05/23 08:09:57;;;;;;;2.83;0.88;;;;;;;13.59;72.65;100374.31;3533514;40;20063;-50
2021/05/23 08:12:24;;;;;;;2.42;0.90;;;;;;;14.54;70.96;100372.41;3533042;40;20051;-49
2021/05/23 08:14:51;;;;;;;2.15;0.85;;;;;;;15.51;68.29;100372.63;3533376;40;20328;-51
2021/05/23 08:17:18;;;;;;;3.20;0.73;;;;;;;15.42;63.80;100376.91;3533102;40;20058;-49
2021/05/23 08:19:45;;;;;;;2.75;1.00;;;;;;;15.51;65.11;100384.66;3533168;40;20090;-50
2021/05/23 08:22:12;;;;;;;1.77;0.75;;;;;;;15.39;63.90;100388.13;3533142;40;20099;-54
2021/05/23 08:24:39;;;;;;;2.05;0.98;;;;;;;15.54;65.23;100388.13;3533510;40;20372;-55
2021/05/23 08:27:06;;;;;;;1.80;0.90;;;;;;;15.49;63.38;100382.09;3533132;40;20086;-53
2021/05/23 08:29:33;;;;;;;2.53;0.85;;;;;;;15.13;62.49;100382.03;3532991;40;20090;-54
2021/05/23 08:32:01;;;;;;;1.63;0.82;;;;;;;15.07;62.14;100375.16;3533250;40;20062;-54
2021/05/23 08:34:28;;;;;;;1.95;0.80;;;;;;;15.24;63.82;100378.59;3533508;40;20067;-54
2021/05/23 08:36:55;;;;;;;1.20;0.70;;;;;;;15.19;63.78;100384.63;3532818;40;20086;-52
2021/05/23 08:39:22;;;;;;;2.05;0.60;;;;;;;15.24;62.17;100388.06;3532865;40;20078;-54
2021/05/23 08:41:51;;;;;;;1.90;0.70;;;;;;;15.68;59.92;100380.41;3533091;40;20065;-50
2021/05/23 08:44:20;;;;;;;1.73;0.90;;;;;;;16.30;61.87;100382.03;3532926;40;20345;-52
2021/05/23 08:46:50;;;;;;;3.20;0.90;;;;;;;16.39;60.81;100382.88;3532861;40;20059;-50
2021/05/23 08:49:23;;;;;;;1.63;0.73;;;;;;;16.47;62.22;100387.16;3533186;40;20094;-51
2021/05/23 08:51:51;;;;;;;2.15;0.90;;;;;;;16.52;57.14;100382.81;3533191;40;20059;-52
2021/05/23 08:54:19;;;;;;;2.15;1.05;;;;;;;16.69;55.69;100390.53;3533051;40;20114;-50
2021/05/23 08:56:48;;;;;;;3.15;0.90;;;;;;;16.54;57.74;100386.25;3533162;40;20059;-50
2021/05/23 08:59:16;;;;;;;1.20;0.80;;;;;;;16.55;55.97;100389.72;3533011;40;20456;-49
2021/05/23 09:01:44;;;;;;;1.83;1.00;;;;;;;17.11;55.52;100398.97;3529148;40;20091;-56
2021/05/23 09:04:19;;;;;;;1.55;1.20;;;;;;;16.88;57.06;100395.66;3533118;40;20910;-54
2021/05/23 09:06:47;;;;;;;2.15;1.15;;;;;;;16.95;58.59;100398.19;3528898;40;20111;-53
2021/05/23 09:09:16;;;;;;;0.80;0.80;;;;;;;16.65;59.20;100398.31;3533019;40;20768;-52
2021/05/23 09:11:53;;;;;;;1.65;1.02;;;;;;;16.39;59.45;100406.97;3529148;40;20094;-53
2021/05/23 09:14:34;;;;;;;3.15;1.15;;;;;;;16.44;59.85;100413.00;3533215;40;20074;-52
2021/05/23 09:17:04;;;;;;;1.70;0.90;;;;;;;16.53;59.50;100419.88;3532755;40;20083;-54
2021/05/23 09:19:42;;;;;;;2.40;0.95;;;;;;;16.89;58.93;100424.09;3532754;40;20118;-51
2021/05/23 09:22:16;;;;;;;3.40;1.08;;;;;;;16.97;57.03;100414.56;3532974;40;20614;-50
2021/05/23 09:24:57;;;;;;;1.13;0.93;;;;;;;17.10;55.08;100405.03;3528927;40;20058;-52
2021/05/23 09:27:28;;;;;;;1.55;1.00;;;;;;;18.19;52.22;100409.38;3532783;40;20075;-52
2021/05/23 09:30:08;;;;;;;1.42;1.00;;;;;;;18.69;51.61;100407.97;3532990;40;20047;-51
2021/05/23 09:32:45;;;;;;;2.25;1.13;;;;;;;18.96;50.05;100410.22;3532879;40;20077;-50
2021/05/23 09:35:14;;;;;;;2.20;0.80;;;;;;;18.24;52.76;100410.16;3532838;40;20086;-55
2021/05/23 09:37:43;;;;;;;0.68;0.50;;;;;;;17.91;50.72;100412.22;3529158;40;20624;-50
2021/05/23 09:40:14;;;;;;;2.05;0.60;;;;;;;17.39;54.00;100433.31;3532697;40;20054;-52
2021/05/23 09:42:46;;;;;;;0.77;0.50;;;;;;;17.03;52.19;100418.84;3528918;40;20058;-52
2021/05/23 09:45:15;;;;;;;3.03;0.90;;;;;;;16.37;56.22;100431.13;3532611;40;20106;-52
2021/05/23 09:47:58;;;;;;;2.33;0.70;;;;;;;16.38;57.70;100422.50;3533090;40;20082;-49
2021/05/23 09:50:35;;;;;;;1.60;0.88;;;;;;;16.66;57.72;100436.22;3532338;40;20072;-53
2021/05/23 09:53:02;;;;;;;;;;;;;;;16.74;57.70;100443.13;3533336;40;20054;-53
2021/05/23 09:55:30;;;;;;;0.90;0.52;;;;;;;16.32;57.74;100443.19;3532743;40;20034;-51
2021/05/23 09:57:57;;;;;;;0.50;0.50;;;;;;;16.85;56.66;100445.66;3532695;40;20094;-55
2021/05/23 10:00:24;;;;;;;1.30;0.60;;;;;;;18.40;54.25;100453.22;3532560;40;20079;-53
2021/05/23 10:03:01;;;;;;;0.75;0.50;;;;;;;18.87;52.85;100454.47;3533092;40;20089;-53
2021/05/23 10:05:28;;;;;;;0.98;0.68;;;;;;;19.08;49.56;100445.53;3532465;40;20070;-51
2021/05/23 10:07:55;;;;;;;0.88;0.50;;;;;;;19.50;46.35;100451.84;3532706;40;20067;-53
2021/05/23 10:10:22;;;;;;;0.90;0.63;;;;;;;19.27;46.95;100448.72;3532533;40;20058;-54
2021/05/23 10:12:50;;;;;;;2.03;1.40;;;;;;;18.61;49.51;100451.25;3532705;40;20318;-55
2021/05/23 10:15:17;;;;;;;2.67;0.93;;;;;;;17.60;51.42;100460.75;3532592;40;20111;-52
2021/05/23 10:17:56;;;;;;;1.25;0.93;;;;;;;17.72;53.59;100462.41;3532794;40;20387;-52
2021/05/23 10:20:27;;;;;;;1.35;0.93;;;;;;;17.07;55.40;100463.69;3532534;40;20054;-52
2021/05/23 10:22:57;;;;;;;2.28;0.88;;;;;;;16.74;57.05;100465.53;3532719;40;20057;-51
2021/05/23 10:25:26;;;;;;;1.35;1.05;;;;;;;16.22;57.52;100469.06;3532627;40;20050;-56
2021/05/23 10:27:54;;;;;;;3.78;2.65;;;;;;;16.29;57.87;100477.66;3523506;40;20094;-55
2021/05/23 10:30:22;;;;;;;3.67;3.22;;;;;;;16.33;58.53;100481.09;3532240;40;20077;-51
2021/05/23 10:32:49;;;;;;;1.20;0.90;;;;;;;16.30;58.54;100484.53;3532451;40;20425;-51
2021/05/23 10:35:24;;;;;;;1.25;0.82;;;;;;;16.42;56.45;100489.69;3532743;40;20061;-53
2021/05/23 10:37:52;;;;;;;0.70;0.60;;;;;;;16.27;57.07;100490.56;3529486;40;20474;-55
2021/05/23 10:40:24;;;;;;;1.65;0.85;;;;;;;15.91;58.75;100486.28;3532749;40;20085;-52
2021/05/23 10:43:01;;;;;;;1.95;0.63;;;;;;;16.43;57.51;100486.25;3532741;40;20087;-50
2021/05/23 10:45:33;;;;;;;2.03;0.73;;;;;;;16.27;56.31;100498.31;3532765;40;20367;-51
2021/05/23 10:48:14;;;;;;;3.75;1.33;;;;;;;19.98;48.29;100498.78;3532717;40;20059;-52
2021/05/23 10:50:44;;;;;;;1.27;0.70;;;;;;;23.68;40.50;100507.56;3528619;40;20087;-50
2021/05/23 10:53:12;;;;;;;0.70;0.60;;;;;;;23.25;37.57;100510.56;3532624;40;20495;-57
2021/05/23 10:55:57;;;;;;;2.15;1.08;;;;;;;23.18;38.97;100507.28;3532496;40;20079;-51
2021/05/23 10:58:25;;;;;;;1.55;0.70;;;;;;;22.02;40.02;100499.94;3532240;40;20345;-56
2021/05/23 11:00:55;;;;;;;1.48;0.55;;;;;;;22.42;39.49;100507.66;3532329;40;20413;-55
2021/05/23 11:03:24;;;;;;;0.98;0.60;;;;;;;19.94;43.88;100506.66;3532521;40;20099;-53
2021/05/23 11:06:05;;;;;;;1.23;0.73;;;;;;;19.43;45.21;100499.59;3532234;40;20047;-54
2021/05/23 11:08:34;;;;;;;1.35;0.60;;;;;;;18.65;48.65;100507.41;3532273;40;20059;-56
2021/05/23 11:11:02;;;;;;;0.80;0.60;;;;;;;17.73;54.46;100526.28;3531672;40;20073;-53
2021/05/23 11:13:31;;;;;;;5.25;1.63;;;;;;;14.70;87.93;100536.56;3532058;40;20147;-55
2021/05/23 11:16:14;;;;;;;6.97;1.55;;;;;;;13.37;93.58;100523.31;3532499;40;20053;-51
2021/05/23 11:18:42;;;;;;;1.55;1.42;;;;;;;13.13;97.17;100536.72;3532585;40;20333;-51
2021/05/23 11:21:15;;;;;;;4.68;1.75;;;;;;;12.79;99.14;100534.53;3532214;40;20087;-53
2021/05/23 11:23:56;;;;;;;3.97;1.80;;;;;;;12.59;100.00;100549.66;3528254;40;20143;-51
2021/05/23 11:26:25;;;;;;;3.25;2.17;;;;;;;12.56;100.00;100557.31;3531638;40;20089;-54
2021/05/23 11:28:54;;;;;;;5.15;1.80;;;;;;;12.39;100.00;100547.66;3531657;40;20042;-52
2021/05/23 11:31:28;;;;;;;3.83;2.00;;;;;;;12.38;100.00;100543.31;3531997;40;20062;-50
2021/05/23 11:33:56;;;;;;;3.35;1.90;;;;;;;12.23;100.00;100540.53;3532295;40;20051;-53
2021/05/23 11:36:28;;;;;;;1.63;1.52;;;;;;;12.40;99.25;100543.38;3532239;40;20062;-51